createdAt,value
2023-05-19T00:00:02.580Z,9.05
2023-05-19T00:02:39.611Z,7.88
2023-05-19T00:05:08.429Z,8.60
2023-05-19T00:07:38.972Z,8.45
2023-05-19T00:10:07.786Z,8.73
2023-05-19T00:12:37.545Z,8.52
2023-05-19T00:15:06.303Z,8.73
2023-05-19T00:17:34.589Z,8.75
2023-05-19T00:20:07.395Z,8.70
2023-05-19T00:22:36.993Z,8.32
2023-05-19T00:25:06.337Z,9.77
2023-05-19T00:27:34.151Z,8.90
2023-05-19T00:30:09.318Z,8.82
2023-05-19T00:32:37.209Z,8.80
2023-05-19T00:35:05.974Z,8.48
2023-05-19T00:37:33.699Z,8.82
2023-05-19T00:40:01.546Z,9.40
2023-05-19T00:42:29.319Z,8.80
2023-05-19T00:44:57.104Z,8.38
2023-05-19T00:47:24.876Z,8.93
2023-05-19T00:49:52.750Z,9.25
2023-05-19T00:52:20.635Z,9.35
2023-05-19T00:54:50.132Z,9.43
2023-05-19T00:57:18.198Z,9.05
2023-05-19T00:59:46.020Z,9.38
2023-05-19T01:02:15.043Z,9.38
2023-05-19T01:04:44.972Z,9.13
2023-05-19T01:07:12.853Z,9.88
2023-05-19T01:09:40.865Z,9.27
2023-05-19T01:12:09.727Z,9.95
2023-05-19T01:14:37.496Z,11.73
2023-05-19T01:17:14.511Z,10.18
2023-05-19T01:19:51.110Z,10.32
2023-05-19T01:22:46.642Z,9.98
2023-05-19T01:25:50.766Z,10.30
2023-05-19T01:28:54.651Z,10.38
2023-05-19T01:31:25.599Z,10.50
2023-05-19T01:33:54.643Z,10.48
2023-05-19T01:36:23.809Z,10.55
2023-05-19T01:38:55.120Z,10.35
2023-05-19T01:41:24.435Z,10.82
2023-05-19T01:43:54.287Z,11.23
2023-05-19T01:46:24.133Z,11.15
2023-05-19T01:48:53.705Z,11.57
2023-05-19T01:51:21.479Z,10.27
2023-05-19T01:53:50.036Z,10.57
2023-05-19T01:56:31.284Z,10.43
2023-05-19T01:59:17.085Z,9.57
2023-05-19T02:01:56.610Z,10.07
2023-05-19T02:04:51.780Z,10.45
2023-05-19T02:07:46.725Z,10.57
2023-05-19T02:10:28.046Z,9.02
2023-05-19T02:13:01.490Z,10.00
2023-05-19T02:15:39.378Z,11.48
2023-05-19T02:18:11.693Z,10.98
2023-05-19T02:20:40.788Z,10.30
2023-05-19T02:23:08.988Z,11.68
2023-05-19T02:25:36.730Z,11.73
2023-05-19T02:28:04.774Z,10.68
2023-05-19T02:30:33.000Z,11.65
2023-05-19T02:33:01.429Z,10.73
2023-05-19T02:35:29.215Z,11.60
2023-05-19T02:37:57.666Z,11.48
2023-05-19T02:40:26.345Z,11.27
2023-05-19T02:42:54.129Z,12.13
2023-05-19T02:45:21.870Z,11.52
2023-05-19T02:47:49.697Z,11.32
2023-05-19T02:50:19.905Z,11.98
2023-05-19T02:52:48.066Z,11.77
2023-05-19T02:55:17.489Z,11.82
2023-05-19T02:57:45.345Z,11.40
2023-05-19T03:00:13.829Z,11.00
2023-05-19T03:02:44.011Z,11.65
2023-05-19T03:05:12.042Z,11.25
2023-05-19T03:07:39.868Z,10.93
2023-05-19T03:10:08.693Z,11.05
2023-05-19T03:12:36.597Z,11.40
2023-05-19T03:15:04.841Z,12.82
2023-05-19T03:17:34.367Z,12.27
2023-05-19T03:20:02.696Z,12.65
2023-05-19T03:22:30.542Z,12.82
2023-05-19T03:24:58.538Z,11.57
2023-05-19T03:27:27.012Z,12.88
2023-05-19T03:29:55.535Z,13.05
2023-05-19T03:32:24.466Z,13.07
2023-05-19T03:34:52.533Z,13.63
2023-05-19T03:37:20.376Z,12.68
2023-05-19T03:39:48.157Z,12.07
2023-05-19T03:42:16.277Z,12.63
2023-05-19T03:44:44.847Z,12.68
2023-05-19T03:47:13.801Z,12.65
2023-05-19T03:50:02.325Z,12.45
2023-05-19T03:52:48.943Z,12.30
2023-05-19T03:55:30.290Z,11.55
2023-05-19T03:57:58.177Z,11.90
2023-05-19T04:00:25.944Z,12.52
2023-05-19T04:02:53.985Z,12.63
2023-05-19T04:05:21.870Z,12.15
2023-05-19T04:07:49.726Z,13.13
2023-05-19T04:10:20.732Z,12.05
2023-05-19T04:12:48.620Z,12.05
2023-05-19T04:15:17.082Z,11.20
2023-05-19T04:17:46.312Z,11.05
2023-05-19T04:20:14.300Z,11.52
2023-05-19T04:22:42.031Z,11.48
2023-05-19T04:25:10.537Z,11.73
2023-05-19T04:27:42.475Z,10.27
2023-05-19T04:30:10.748Z,10.50
2023-05-19T04:32:39.777Z,10.45
2023-05-19T04:35:08.288Z,10.73
2023-05-19T04:37:37.494Z,10.07
2023-05-19T04:40:10.075Z,10.77
2023-05-19T04:42:41.255Z,10.40
2023-05-19T04:45:12.425Z,10.00
2023-05-19T04:47:43.061Z,10.25
2023-05-19T04:50:11.599Z,9.27
2023-05-19T04:52:39.304Z,9.07
2023-05-19T04:55:07.823Z,9.65
2023-05-19T04:57:37.626Z,10.00
2023-05-19T05:00:09.114Z,9.48
2023-05-19T05:02:46.562Z,9.38
2023-05-19T05:05:14.857Z,8.98
2023-05-19T05:07:43.357Z,9.57
2023-05-19T05:10:12.357Z,9.23
2023-05-19T05:12:41.397Z,8.15
2023-05-19T05:15:10.310Z,8.98
2023-05-19T05:17:39.179Z,9.60
2023-05-19T05:20:08.417Z,8.77
2023-05-19T05:22:38.697Z,9.15
2023-05-19T05:25:09.212Z,8.52
2023-05-19T05:27:37.886Z,8.40
2023-05-19T05:30:08.367Z,9.60
2023-05-19T05:32:36.453Z,8.23
2023-05-19T05:35:09.964Z,7.47
2023-05-19T05:37:38.848Z,8.15
2023-05-19T05:40:07.917Z,8.32
2023-05-19T05:42:36.834Z,9.23
2023-05-19T05:45:05.380Z,8.52
2023-05-19T05:47:33.754Z,8.60
2023-05-19T05:50:02.051Z,8.23
2023-05-19T05:52:31.550Z,8.55
2023-05-19T05:55:01.542Z,7.57
2023-05-19T05:57:35.500Z,8.48
2023-05-19T06:00:10.319Z,7.68
2023-05-19T06:02:47.399Z,8.57
2023-05-19T06:05:17.160Z,7.40
2023-05-19T06:07:46.757Z,8.00
2023-05-19T06:10:21.394Z,8.00
2023-05-19T06:12:50.586Z,7.90
2023-05-19T06:15:18.398Z,7.50
2023-05-19T06:17:59.715Z,8.13
2023-05-19T06:20:27.886Z,7.85
2023-05-19T06:22:56.609Z,7.47
2023-05-19T06:25:27.190Z,7.60
2023-05-19T06:27:56.301Z,7.82
2023-05-19T06:30:24.899Z,7.78
2023-05-19T06:33:07.334Z,7.82
2023-05-19T06:35:35.278Z,8.55
2023-05-19T06:38:03.027Z,7.55
2023-05-19T06:40:31.160Z,7.97
2023-05-19T06:42:59.089Z,7.80
2023-05-19T06:45:49.528Z,8.52
2023-05-19T06:48:17.268Z,6.55
2023-05-19T06:50:45.191Z,8.25
2023-05-19T06:53:14.063Z,8.07
2023-05-19T06:55:54.394Z,8.30
2023-05-19T06:58:24.372Z,7.85
2023-05-19T07:00:52.269Z,7.65
2023-05-19T07:03:20.153Z,8.05
2023-05-19T07:05:48.747Z,7.10
2023-05-19T07:08:16.508Z,8.23
2023-05-19T07:10:44.806Z,6.95
2023-05-19T07:13:14.707Z,8.20
2023-05-19T07:15:42.426Z,7.90
2023-05-19T07:18:10.337Z,8.40
2023-05-19T07:20:38.046Z,8.25
2023-05-19T07:23:05.957Z,7.32
2023-05-19T07:25:33.806Z,8.50
2023-05-19T07:28:01.559Z,7.95
2023-05-19T07:30:30.339Z,7.65
2023-05-19T07:32:58.253Z,7.55
2023-05-19T07:35:26.702Z,7.63
2023-05-19T07:37:54.475Z,7.20
2023-05-19T07:40:22.228Z,8.10
2023-05-19T07:42:50.845Z,6.93
2023-05-19T07:45:18.730Z,8.55
2023-05-19T07:47:46.626Z,7.45
2023-05-19T07:50:14.313Z,7.80
2023-05-19T07:52:42.158Z,7.15
2023-05-19T07:55:09.911Z,8.20
2023-05-19T07:57:37.962Z,7.50
2023-05-19T08:00:07.778Z,7.53
2023-05-19T08:02:39.589Z,7.70
2023-05-19T08:05:09.336Z,6.28
2023-05-19T08:07:37.250Z,7.32
2023-05-19T08:10:05.275Z,7.10
2023-05-19T08:12:33.012Z,6.45
2023-05-19T08:15:01.744Z,6.80
2023-05-19T08:17:29.984Z,6.38
2023-05-19T08:19:57.776Z,6.55
2023-05-19T08:22:26.117Z,6.60
2023-05-19T08:24:54.987Z,6.18
2023-05-19T08:27:22.968Z,6.60
2023-05-19T08:29:51.056Z,6.55
2023-05-19T08:32:18.945Z,6.45
2023-05-19T08:34:46.745Z,7.07
2023-05-19T08:37:14.571Z,6.90
2023-05-19T08:39:42.336Z,6.50
2023-05-19T08:42:10.240Z,6.75
2023-05-19T08:44:40.057Z,6.88
2023-05-19T08:47:12.917Z,5.90
2023-05-19T08:49:52.530Z,6.15
2023-05-19T08:52:36.237Z,5.80
2023-05-19T08:55:21.819Z,5.75
2023-05-19T08:57:50.928Z,6.28
2023-05-19T09:00:20.775Z,5.40
2023-05-19T09:03:00.703Z,6.10
2023-05-19T09:05:29.630Z,6.00
2023-05-19T09:07:57.762Z,6.00
2023-05-19T09:10:27.103Z,5.32
2023-05-19T09:12:55.793Z,6.47
2023-05-19T09:15:30.544Z,5.88
2023-05-19T09:18:14.146Z,6.53
2023-05-19T09:20:44.413Z,5.38
2023-05-19T09:23:17.488Z,5.60
2023-05-19T09:25:53.576Z,4.85
2023-05-19T09:28:30.497Z,5.45
2023-05-19T09:31:07.129Z,5.25
2023-05-19T09:33:42.906Z,4.95
2023-05-19T09:36:12.662Z,5.38
2023-05-19T09:38:40.728Z,4.88
2023-05-19T09:41:09.426Z,5.03
2023-05-19T09:43:37.285Z,4.93
2023-05-19T09:46:12.958Z,4.93
2023-05-19T09:48:42.576Z,5.43
2023-05-19T09:51:11.013Z,5.85
2023-05-19T09:53:39.307Z,4.70
2023-05-19T09:56:09.916Z,4.70
2023-05-19T09:58:39.115Z,5.05
2023-05-19T10:01:07.668Z,4.10
2023-05-19T10:03:36.786Z,4.68
2023-05-19T10:06:05.651Z,5.15
2023-05-19T10:08:35.971Z,4.65
2023-05-19T10:11:03.970Z,4.68
2023-05-19T10:13:35.904Z,4.50
2023-05-19T10:16:03.956Z,4.05
2023-05-19T10:18:35.279Z,3.75
2023-05-19T10:21:04.841Z,3.83
2023-05-19T10:23:33.364Z,3.50
2023-05-19T10:26:05.212Z,3.15
2023-05-19T10:28:39.977Z,3.38
2023-05-19T10:31:13.779Z,3.97
2023-05-19T10:34:07.113Z,3.45
2023-05-19T10:36:49.878Z,3.70
2023-05-19T10:39:29.568Z,4.03
2023-05-19T10:42:41.199Z,3.67
2023-05-19T10:45:24.339Z,3.35
2023-05-19T10:47:52.254Z,2.65
2023-05-19T10:50:20.833Z,2.97
2023-05-19T10:52:56.717Z,3.30
2023-05-19T10:55:56.191Z,3.17
2023-05-19T10:58:50.001Z,3.25
2023-05-19T11:01:20.893Z,3.00
2023-05-19T11:03:54.231Z,2.38
2023-05-19T11:06:25.262Z,3.15
2023-05-19T11:08:56.025Z,2.78
2023-05-19T11:11:24.204Z,2.83
2023-05-19T11:13:55.192Z,2.50
2023-05-19T11:16:31.623Z,2.72
2023-05-19T11:19:00.091Z,2.90
2023-05-19T11:21:55.148Z,2.60
2023-05-19T11:24:40.116Z,2.20
2023-05-19T11:27:33.429Z,2.20
2023-05-19T11:30:06.566Z,2.03
2023-05-19T11:32:39.170Z,2.08
2023-05-19T11:35:08.208Z,1.70
2023-05-19T11:37:37.019Z,1.92
2023-05-19T11:40:09.418Z,2.80
2023-05-19T11:42:37.565Z,2.35
2023-05-19T11:45:06.454Z,2.50
2023-05-19T11:47:46.026Z,2.47
2023-05-19T11:50:22.049Z,2.10
2023-05-19T11:52:54.943Z,2.10
2023-05-19T11:55:23.028Z,1.80
2023-05-19T11:58:05.840Z,1.90
2023-05-19T12:00:40.834Z,1.67
2023-05-19T12:03:09.841Z,2.20
2023-05-19T12:05:45.503Z,2.00
2023-05-19T12:08:13.872Z,2.00
2023-05-19T12:10:41.813Z,2.42
2023-05-19T12:13:10.587Z,2.38
2023-05-19T12:15:40.870Z,2.50
2023-05-19T12:18:09.070Z,2.13
2023-05-19T12:20:37.394Z,2.38
2023-05-19T12:23:05.793Z,2.15
2023-05-19T12:25:34.214Z,2.88
2023-05-19T12:28:05.737Z,2.50
2023-05-19T12:30:34.696Z,2.35
2023-05-19T12:33:03.739Z,2.60
2023-05-19T12:35:36.381Z,2.67
2023-05-19T12:38:05.855Z,2.60
2023-05-19T12:40:36.331Z,2.38
2023-05-19T12:43:05.585Z,2.90
2023-05-19T12:45:37.338Z,2.10
2023-05-19T12:48:07.012Z,2.40
2023-05-19T12:50:37.310Z,2.30
2023-05-19T12:53:10.653Z,2.65
2023-05-19T12:55:43.885Z,2.47
2023-05-19T12:58:12.352Z,2.38
2023-05-19T13:00:47.524Z,2.63
2023-05-19T13:03:20.625Z,2.95
2023-05-19T13:05:51.099Z,2.20
2023-05-19T13:08:25.997Z,2.60
2023-05-19T13:10:54.667Z,3.65
2023-05-19T13:13:22.400Z,3.45
2023-05-19T13:15:50.192Z,3.15
2023-05-19T13:18:18.569Z,2.70
2023-05-19T13:20:47.421Z,3.25
2023-05-19T13:23:16.233Z,4.00
2023-05-19T13:25:44.351Z,3.38
2023-05-19T13:28:12.846Z,3.00
2023-05-19T13:30:41.994Z,3.10
2023-05-19T13:33:09.959Z,2.53
2023-05-19T13:35:38.295Z,3.15
2023-05-19T13:38:10.063Z,3.17
2023-05-19T13:40:39.818Z,3.90
2023-05-19T13:43:08.811Z,3.15
2023-05-19T13:45:37.243Z,3.05
2023-05-19T13:48:07.356Z,3.65
2023-05-19T13:50:35.711Z,3.25
2023-05-19T13:53:03.973Z,4.05
2023-05-19T13:55:32.623Z,3.08
2023-05-19T13:58:00.391Z,3.13
2023-05-19T14:00:28.580Z,3.15
2023-05-19T14:02:56.807Z,3.13
2023-05-19T14:05:24.685Z,2.92
2023-05-19T14:07:53.408Z,3.10
2023-05-19T14:10:21.421Z,4.20
2023-05-19T14:13:18.350Z,2.90
2023-05-19T14:15:38.244Z,3.42
2023-05-19T14:18:07.064Z,3.60
2023-05-19T14:20:35.313Z,3.38
2023-05-19T14:23:03.501Z,2.83
2023-05-19T14:25:31.230Z,2.97
2023-05-19T14:27:59.088Z,2.33
2023-05-19T14:30:27.011Z,2.47
2023-05-19T14:32:54.979Z,2.53
2023-05-19T14:35:23.206Z,4.28
2023-05-19T14:37:51.649Z,4.95
2023-05-19T14:40:19.582Z,4.15
2023-05-19T14:42:47.335Z,4.47
2023-05-19T14:45:15.636Z,5.13
2023-05-19T14:47:43.546Z,5.05
2023-05-19T14:50:11.770Z,5.13
2023-05-19T14:52:39.544Z,5.80
2023-05-19T14:55:07.816Z,6.22
2023-05-19T14:57:35.884Z,6.13
2023-05-19T15:00:03.981Z,5.68
2023-05-19T15:02:31.794Z,5.80
2023-05-19T15:05:00.951Z,5.00
2023-05-19T15:07:28.764Z,5.72
2023-05-19T15:09:56.537Z,5.25
2023-05-19T15:12:24.334Z,4.55
2023-05-19T15:14:52.080Z,5.45
2023-05-19T15:17:19.893Z,5.43
2023-05-19T15:19:47.747Z,5.20
2023-05-19T15:22:15.654Z,5.60
2023-05-19T15:24:43.429Z,4.90
2023-05-19T15:27:11.510Z,5.57
2023-05-19T15:29:39.242Z,5.53
2023-05-19T15:32:07.826Z,4.68
2023-05-19T15:34:35.520Z,4.60
2023-05-19T15:37:03.313Z,4.47
2023-05-19T15:39:31.552Z,5.15
2023-05-19T15:41:59.616Z,4.45
2023-05-19T15:44:29.022Z,4.28
2023-05-19T15:46:57.001Z,4.78
2023-05-19T15:49:25.325Z,4.95
2023-05-19T15:51:53.069Z,3.85
2023-05-19T15:54:20.794Z,4.20
2023-05-19T15:56:48.567Z,5.30
2023-05-19T15:59:16.249Z,4.82
2023-05-19T16:01:44.104Z,4.95
2023-05-19T16:04:11.868Z,4.45
2023-05-19T16:06:39.586Z,5.07
2023-05-19T16:09:07.404Z,5.65
2023-05-19T16:11:35.115Z,4.90
2023-05-19T16:14:02.901Z,5.20
2023-05-19T16:16:30.680Z,5.32
2023-05-19T16:19:01.050Z,5.13
2023-05-19T16:21:28.863Z,5.43
2023-05-19T16:23:56.541Z,5.50
2023-05-19T16:26:24.256Z,5.13
2023-05-19T16:28:52.174Z,5.28
2023-05-19T16:31:20.043Z,4.50
2023-05-19T16:33:47.990Z,4.78
2023-05-19T16:36:15.769Z,3.95
2023-05-19T16:38:43.486Z,4.60
2023-05-19T16:41:14.244Z,4.35
2023-05-19T16:43:42.106Z,3.50
2023-05-19T16:46:12.212Z,4.15
2023-05-19T16:48:40.224Z,4.10
2023-05-19T16:51:07.986Z,3.92
2023-05-19T16:53:35.808Z,3.67
2023-05-19T16:56:03.863Z,3.70
2023-05-19T16:58:31.778Z,4.55
2023-05-19T17:00:59.596Z,4.13
2023-05-19T17:03:27.506Z,3.90
2023-05-19T17:05:55.366Z,3.92
2023-05-19T17:08:23.175Z,4.10
2023-05-19T17:10:53.998Z,4.10
2023-05-19T17:13:21.855Z,4.00
2023-05-19T17:15:52.675Z,4.15
2023-05-19T17:18:20.564Z,3.97
2023-05-19T17:20:48.281Z,3.92
2023-05-19T17:23:16.225Z,3.95
2023-05-19T17:25:43.999Z,3.85
2023-05-19T17:28:11.758Z,4.40
2023-05-19T17:30:42.570Z,3.92
2023-05-19T17:33:10.953Z,3.75
2023-05-19T17:35:38.834Z,4.55
2023-05-19T17:38:06.839Z,4.00
2023-05-19T17:40:35.697Z,3.58
2023-05-19T17:43:03.720Z,3.55
2023-05-19T17:45:31.457Z,3.72
2023-05-19T17:47:59.249Z,3.42
2023-05-19T17:50:27.293Z,3.50
2023-05-19T17:52:56.198Z,3.30
2023-05-19T17:55:29.698Z,3.85
2023-05-19T17:57:58.433Z,3.33
2023-05-19T18:00:26.665Z,3.88
2023-05-19T18:02:56.951Z,3.20
2023-05-19T18:05:25.784Z,3.47
2023-05-19T18:07:57.156Z,3.47
2023-05-19T18:10:27.590Z,3.97
2023-05-19T18:12:55.512Z,3.33
2023-05-19T18:15:24.109Z,3.63
2023-05-19T18:17:51.882Z,3.55
2023-05-19T18:20:19.810Z,3.22
2023-05-19T18:22:47.625Z,3.20
2023-05-19T18:25:16.977Z,2.80
2023-05-19T18:27:47.673Z,3.40
2023-05-19T18:30:15.840Z,3.63
2023-05-19T18:32:43.620Z,3.35
2023-05-19T18:35:11.417Z,3.33
2023-05-19T18:37:39.294Z,3.28
2023-05-19T18:40:08.204Z,4.07
2023-05-19T18:42:35.956Z,3.80
2023-05-19T18:45:04.262Z,3.72
2023-05-19T18:47:31.980Z,3.33
2023-05-19T18:50:00.163Z,3.83
2023-05-19T18:52:28.709Z,3.47
2023-05-19T18:54:56.475Z,4.15
2023-05-19T18:57:24.196Z,4.30
2023-05-19T18:59:51.993Z,4.53
2023-05-19T19:02:19.686Z,3.95
2023-05-19T19:04:47.514Z,3.75
2023-05-19T19:07:15.382Z,4.47
2023-05-19T19:09:43.945Z,4.07
2023-05-19T19:12:11.741Z,4.32
2023-05-19T19:14:39.589Z,3.83
2023-05-19T19:17:07.371Z,4.22
2023-05-19T19:19:35.159Z,4.43
2023-05-19T19:22:03.177Z,3.42
2023-05-19T19:24:32.163Z,4.25
2023-05-19T19:26:59.892Z,4.63
2023-05-19T19:29:28.404Z,3.88
2023-05-19T19:31:56.368Z,3.72
2023-05-19T19:34:24.173Z,4.22
2023-05-19T19:36:52.188Z,4.93
2023-05-19T19:39:19.953Z,4.78
2023-05-19T19:41:47.698Z,4.28
2023-05-19T19:44:15.587Z,4.15
2023-05-19T19:46:43.371Z,4.20
2023-05-19T19:49:11.230Z,3.58
2023-05-19T19:51:39.026Z,4.10
2023-05-19T19:54:06.814Z,3.90
2023-05-19T19:56:34.592Z,4.22
2023-05-19T19:59:02.320Z,3.65
2023-05-19T20:01:30.153Z,4.10
2023-05-19T20:03:58.081Z,3.63
2023-05-19T20:06:26.116Z,3.58
2023-05-19T20:08:53.953Z,3.72
2023-05-19T20:11:23.831Z,3.90
2023-05-19T20:13:52.224Z,3.47
2023-05-19T20:16:20.287Z,3.88
2023-05-19T20:18:48.111Z,3.95
2023-05-19T20:21:16.123Z,3.60
2023-05-19T20:23:43.973Z,4.00
2023-05-19T20:26:16.851Z,3.85
2023-05-19T20:28:45.256Z,3.88
2023-05-19T20:31:13.029Z,3.90
2023-05-19T20:33:47.135Z,4.40
2023-05-19T20:36:15.438Z,4.13
2023-05-19T20:38:43.237Z,4.32
2023-05-19T20:41:10.950Z,4.20
2023-05-19T20:43:38.660Z,4.43
2023-05-19T20:46:06.682Z,4.65
2023-05-19T20:48:34.662Z,3.83
2023-05-19T20:51:02.475Z,4.57
2023-05-19T20:53:30.202Z,3.85
2023-05-19T20:55:58.259Z,3.70
2023-05-19T20:58:30.129Z,3.55
2023-05-19T21:00:58.304Z,4.40
2023-05-19T21:03:29.030Z,4.80
2023-05-19T21:05:59.276Z,4.10
2023-05-19T21:08:28.591Z,4.07
2023-05-19T21:10:56.393Z,4.30
2023-05-19T21:13:24.714Z,4.25
2023-05-19T21:15:53.382Z,5.10
2023-05-19T21:18:21.441Z,3.92
2023-05-19T21:20:50.897Z,4.22
2023-05-19T21:23:18.974Z,3.95
2023-05-19T21:25:46.856Z,4.15
2023-05-19T21:28:14.638Z,4.72
2023-05-19T21:30:42.636Z,3.92
2023-05-19T21:33:11.673Z,4.70
2023-05-19T21:35:39.744Z,4.88
2023-05-19T21:38:22.037Z,4.43
2023-05-19T21:40:51.394Z,4.72
2023-05-19T21:43:19.670Z,4.88
2023-05-19T21:45:47.462Z,4.72
2023-05-19T21:48:15.483Z,5.55
2023-05-19T21:50:43.410Z,5.07
2023-05-19T21:53:11.520Z,5.45
2023-05-19T21:55:39.428Z,5.60
2023-05-19T21:58:07.355Z,5.45
2023-05-19T22:00:37.058Z,5.68
2023-05-19T22:03:05.274Z,5.70
2023-05-19T22:05:35.464Z,6.00
2023-05-19T22:08:03.988Z,5.80
2023-05-19T22:10:33.105Z,6.38
2023-05-19T22:13:12.849Z,6.15
2023-05-19T22:15:41.434Z,6.72
2023-05-19T22:18:09.421Z,7.18
2023-05-19T22:20:37.878Z,7.10
2023-05-19T22:23:05.945Z,6.45
2023-05-19T22:25:34.032Z,6.65
2023-05-19T22:28:01.817Z,7.60
2023-05-19T22:30:29.647Z,8.13
2023-05-19T22:32:57.434Z,7.38
2023-05-19T22:35:25.476Z,8.07
2023-05-19T22:37:53.260Z,8.10
2023-05-19T22:40:21.068Z,8.52
2023-05-19T22:42:48.796Z,8.48
2023-05-19T22:45:16.800Z,9.27
2023-05-19T22:47:44.569Z,8.77
2023-05-19T22:50:12.462Z,8.63
2023-05-19T22:52:40.281Z,8.63
2023-05-19T22:55:08.619Z,9.32
2023-05-19T22:57:36.490Z,9.82
2023-05-19T23:00:05.139Z,9.38
2023-05-19T23:02:33.171Z,10.05
2023-05-19T23:05:01.045Z,10.98
2023-05-19T23:07:28.757Z,10.00
2023-05-19T23:09:56.525Z,11.38
2023-05-19T23:12:24.389Z,10.10
2023-05-19T23:14:53.230Z,11.27
2023-05-19T23:17:20.989Z,11.32
2023-05-19T23:19:48.762Z,11.40
2023-05-19T23:22:16.625Z,11.55
2023-05-19T23:24:44.419Z,11.30
2023-05-19T23:27:12.226Z,10.88
2023-05-19T23:29:39.947Z,11.93
2023-05-19T23:32:08.093Z,11.30
2023-05-19T23:34:35.814Z,10.90
2023-05-19T23:37:03.597Z,10.48
2023-05-19T23:39:31.289Z,11.02
2023-05-19T23:41:59.084Z,11.00
2023-05-19T23:44:27.332Z,11.73
2023-05-19T23:46:55.056Z,10.85
2023-05-19T23:49:22.824Z,10.77
2023-05-19T23:51:50.705Z,11.15
2023-05-19T23:54:18.435Z,10.80
2023-05-19T23:56:46.217Z,10.05
2023-05-19T23:59:13.910Z,10.90
